createdAt,value
2023-01-07T00:01:27.071Z,100.00
2023-01-07T00:03:56.061Z,100.00
2023-01-07T00:06:26.868Z,100.00
2023-01-07T00:08:56.128Z,100.00
2023-01-07T00:11:26.416Z,100.00
2023-01-07T00:14:01.187Z,100.00
2023-01-07T00:16:30.884Z,100.00
2023-01-07T00:18:58.926Z,100.00
2023-01-07T00:21:26.744Z,100.00
2023-01-07T00:23:58.646Z,100.00
2023-01-07T00:26:27.040Z,100.00
2023-01-07T00:28:54.028Z,100.00
2023-01-07T00:31:22.996Z,100.00
2023-01-07T00:33:59.440Z,100.00
2023-01-07T00:36:27.041Z,100.00
2023-01-07T00:38:58.718Z,100.00
2023-01-07T00:41:25.284Z,100.00
2023-01-07T00:43:51.715Z,100.00
2023-01-07T00:46:18.841Z,100.00
2023-01-07T00:48:45.382Z,100.00
2023-01-07T00:51:14.600Z,100.00
2023-01-07T00:53:41.013Z,100.00
2023-01-07T00:56:09.086Z,100.00
2023-01-07T00:58:35.574Z,100.00
2023-01-07T01:01:02.664Z,100.00
2023-01-07T01:03:33.785Z,100.00
2023-01-07T01:06:18.315Z,100.00
2023-01-07T01:08:46.095Z,100.00
2023-01-07T01:11:14.715Z,100.00
2023-01-07T01:13:44.980Z,100.00
2023-01-07T01:16:14.637Z,100.00
2023-01-07T01:18:41.214Z,100.00
2023-01-07T01:21:09.876Z,100.00
2023-01-07T01:23:36.316Z,100.00
2023-01-07T01:26:08.139Z,100.00
2023-01-07T01:28:35.528Z,100.00
2023-01-07T01:31:02.998Z,100.00
2023-01-07T01:33:29.516Z,100.00
2023-01-07T01:35:55.909Z,100.00
2023-01-07T01:38:22.313Z,100.00
2023-01-07T01:40:48.809Z,100.00
2023-01-07T01:43:29.767Z,100.00
2023-01-07T01:45:58.684Z,100.00
2023-01-07T01:48:28.274Z,100.00
2023-01-07T01:50:54.883Z,100.00
2023-01-07T01:53:30.239Z,100.00
2023-01-07T01:56:10.886Z,100.00
2023-01-07T01:58:41.824Z,100.00
2023-01-07T02:01:08.927Z,100.00
2023-01-07T02:03:40.621Z,100.00
2023-01-07T02:06:15.235Z,100.00
2023-01-07T02:08:41.618Z,100.00
2023-01-07T02:11:13.418Z,100.00
2023-01-07T02:14:01.969Z,100.00
2023-01-07T02:17:03.829Z,100.00
2023-01-07T02:19:33.268Z,100.00
2023-01-07T02:22:23.636Z,100.00
2023-01-07T02:24:49.969Z,100.00
2023-01-07T02:27:45.607Z,100.00
2023-01-07T02:30:31.381Z,100.00
2023-01-07T02:33:03.789Z,100.00
2023-01-07T02:35:46.813Z,100.00
2023-01-07T02:38:51.452Z,100.00
2023-01-07T02:41:39.225Z,100.00
2023-01-07T02:44:24.436Z,100.00
2023-01-07T02:47:13.761Z,100.00
2023-01-07T02:49:40.166Z,100.00
2023-01-07T02:52:16.830Z,100.00
2023-01-07T02:54:44.676Z,100.00
2023-01-07T02:57:42.061Z,100.00
2023-01-07T03:00:19.252Z,100.00
2023-01-07T03:03:14.650Z,100.00
2023-01-07T03:05:51.234Z,100.00
2023-01-07T03:08:29.105Z,100.00
2023-01-07T03:11:02.419Z,100.00
2023-01-07T03:13:48.937Z,100.00
2023-01-07T03:16:50.201Z,100.00
2023-01-07T03:19:22.373Z,100.00
2023-01-07T03:21:50.121Z,100.00
2023-01-07T03:24:16.993Z,100.00
2023-01-07T03:26:48.729Z,100.00
2023-01-07T03:29:17.534Z,100.00
2023-01-07T03:31:57.848Z,100.00
2023-01-07T03:34:27.060Z,100.00
2023-01-07T03:36:57.565Z,100.00
2023-01-07T03:39:28.935Z,100.00
2023-01-07T03:42:13.977Z,100.00
2023-01-07T03:44:40.455Z,100.00
2023-01-07T03:47:07.317Z,100.00
2023-01-07T03:49:36.902Z,100.00
2023-01-07T03:52:04.020Z,100.00
2023-01-07T03:54:30.435Z,100.00
2023-01-07T03:56:56.889Z,100.00
2023-01-07T03:59:23.259Z,100.00
2023-01-07T04:01:49.723Z,100.00
2023-01-07T04:04:16.295Z,100.00
2023-01-07T04:06:46.461Z,100.00
2023-01-07T04:09:15.137Z,100.00
2023-01-07T04:11:41.816Z,100.00
2023-01-07T04:14:08.243Z,100.00
2023-01-07T04:16:34.659Z,100.00
2023-01-07T04:19:01.053Z,100.00
2023-01-07T04:21:27.553Z,100.00
2023-01-07T04:23:53.952Z,100.00
2023-01-07T04:26:20.328Z,100.00
2023-01-07T04:28:46.706Z,100.00
2023-01-07T04:31:13.152Z,100.00
2023-01-07T04:33:39.579Z,100.00
2023-01-07T04:36:06.191Z,100.00
2023-01-07T04:38:32.968Z,100.00
2023-01-07T04:40:59.366Z,100.00
2023-01-07T04:43:25.795Z,100.00
2023-01-07T04:45:52.240Z,100.00
2023-01-07T04:48:18.686Z,100.00
2023-01-07T04:50:47.022Z,100.00
2023-01-07T04:53:13.535Z,100.00
2023-01-07T04:55:40.154Z,100.00
2023-01-07T04:58:06.561Z,100.00
2023-01-07T05:00:33.016Z,100.00
2023-01-07T05:02:59.417Z,100.00
2023-01-07T05:05:26.061Z,100.00
2023-01-07T05:07:52.474Z,100.00
2023-01-07T05:10:26.025Z,100.00
2023-01-07T05:12:52.442Z,100.00
2023-01-07T05:15:18.806Z,100.00
2023-01-07T05:17:45.219Z,100.00
2023-01-07T05:20:11.952Z,100.00
2023-01-07T05:22:38.351Z,100.00
2023-01-07T05:25:05.294Z,100.00
2023-01-07T05:27:31.843Z,100.00
2023-01-07T05:29:58.231Z,100.00
2023-01-07T05:32:24.616Z,100.00
2023-01-07T05:34:51.004Z,100.00
2023-01-07T05:37:17.392Z,100.00
2023-01-07T05:39:50.038Z,100.00
2023-01-07T05:42:16.440Z,100.00
2023-01-07T05:44:42.804Z,100.00
2023-01-07T05:47:09.241Z,100.00
2023-01-07T05:49:35.629Z,100.00
2023-01-07T05:52:02.024Z,100.00
2023-01-07T05:54:28.458Z,100.00
2023-01-07T05:56:54.856Z,100.00
2023-01-07T05:59:21.247Z,100.00
2023-01-07T06:01:47.651Z,100.00
2023-01-07T06:04:14.420Z,100.00
2023-01-07T06:06:40.809Z,100.00
2023-01-07T06:09:07.264Z,100.00
2023-01-07T06:11:33.629Z,100.00
2023-01-07T06:14:00.152Z,100.00
2023-01-07T06:16:26.527Z,100.00
2023-01-07T06:18:59.065Z,100.00
2023-01-07T06:21:25.447Z,100.00
2023-01-07T06:23:51.829Z,100.00
2023-01-07T06:26:18.245Z,100.00
2023-01-07T06:28:44.670Z,100.00
2023-01-07T06:31:11.351Z,100.00
2023-01-07T06:33:38.250Z,100.00
2023-01-07T06:36:04.957Z,100.00
2023-01-07T06:38:31.325Z,100.00
2023-01-07T06:41:01.857Z,100.00
2023-01-07T06:43:28.774Z,100.00
2023-01-07T06:45:55.392Z,100.00
2023-01-07T06:48:21.785Z,100.00
2023-01-07T06:50:48.194Z,100.00
2023-01-07T06:53:14.568Z,100.00
2023-01-07T06:55:40.956Z,100.00
2023-01-07T06:58:07.355Z,100.00
2023-01-07T07:00:33.759Z,100.00
2023-01-07T07:03:00.308Z,100.00
2023-01-07T07:05:28.170Z,100.00
2023-01-07T07:07:54.554Z,100.00
2023-01-07T07:10:21.051Z,100.00
2023-01-07T07:12:54.491Z,100.00
2023-01-07T07:15:20.926Z,100.00
2023-01-07T07:17:47.364Z,100.00
2023-01-07T07:20:13.820Z,100.00
2023-01-07T07:22:45.820Z,100.00
2023-01-07T07:25:12.654Z,100.00
2023-01-07T07:27:40.076Z,100.00
2023-01-07T07:30:08.119Z,100.00
2023-01-07T07:32:34.528Z,100.00
2023-01-07T07:35:00.934Z,100.00
2023-01-07T07:37:27.333Z,100.00
2023-01-07T07:39:53.727Z,100.00
2023-01-07T07:42:20.092Z,100.00
2023-01-07T07:44:46.534Z,100.00
2023-01-07T07:47:12.953Z,100.00
2023-01-07T07:49:39.340Z,100.00
2023-01-07T07:52:06.499Z,100.00
2023-01-07T07:54:38.837Z,100.00
2023-01-07T07:57:05.299Z,100.00
2023-01-07T07:59:35.799Z,100.00
2023-01-07T08:02:02.285Z,100.00
2023-01-07T08:04:34.069Z,100.00
2023-01-07T08:07:01.608Z,100.00
2023-01-07T08:09:28.097Z,100.00
2023-01-07T08:12:15.022Z,100.00
2023-01-07T08:14:43.742Z,100.00
2023-01-07T08:17:10.183Z,100.00
2023-01-07T08:19:36.576Z,100.00
2023-01-07T08:22:09.008Z,100.00
2023-01-07T08:24:35.969Z,100.00
2023-01-07T08:27:02.584Z,100.00
2023-01-07T08:29:30.149Z,100.00
2023-01-07T08:32:00.669Z,100.00
2023-01-07T08:34:27.321Z,100.00
2023-01-07T08:36:56.863Z,100.00
2023-01-07T08:39:32.319Z,100.00
2023-01-07T08:41:58.755Z,100.00
2023-01-07T08:44:30.471Z,100.00
2023-01-07T08:46:56.883Z,100.00
2023-01-07T08:49:23.516Z,100.00
2023-01-07T08:51:49.979Z,100.00
2023-01-07T08:54:16.495Z,100.00
2023-01-07T08:56:42.849Z,100.00
2023-01-07T08:59:15.434Z,100.00
2023-01-07T09:01:43.061Z,100.00
2023-01-07T09:04:09.546Z,100.00
2023-01-07T09:06:35.973Z,100.00
2023-01-07T09:09:02.359Z,100.00
2023-01-07T09:11:28.735Z,100.00
2023-01-07T09:13:55.187Z,100.00
2023-01-07T09:16:21.639Z,100.00
2023-01-07T09:18:48.105Z,100.00
2023-01-07T09:21:14.675Z,100.00
2023-01-07T09:23:41.281Z,100.00
2023-01-07T09:26:07.746Z,100.00
2023-01-07T09:28:34.140Z,100.00
2023-01-07T09:31:00.850Z,100.00
2023-01-07T09:33:27.254Z,100.00
2023-01-07T09:36:04.360Z,100.00
2023-01-07T09:38:30.932Z,100.00
2023-01-07T09:40:57.418Z,100.00
2023-01-07T09:44:00.227Z,100.00
2023-01-07T09:46:20.294Z,100.00
2023-01-07T09:48:53.932Z,100.00
2023-01-07T09:51:31.625Z,100.00
2023-01-07T09:54:01.713Z,100.00
2023-01-07T09:56:30.728Z,100.00
2023-01-07T09:58:59.002Z,100.00
2023-01-07T10:01:50.538Z,100.00
2023-01-07T10:04:45.484Z,99.50
2023-01-07T10:07:24.232Z,99.72
2023-01-07T10:09:57.061Z,98.85
2023-01-07T10:12:33.371Z,98.50
2023-01-07T10:15:11.882Z,97.60
2023-01-07T10:18:10.497Z,97.05
2023-01-07T10:21:13.364Z,96.83
2023-01-07T10:23:43.580Z,97.28
2023-01-07T10:26:22.010Z,95.63
2023-01-07T10:28:57.362Z,95.84
2023-01-07T10:31:27.086Z,93.41
2023-01-07T10:33:57.079Z,93.59
2023-01-07T10:36:28.291Z,94.10
2023-01-07T10:39:22.742Z,94.05
2023-01-07T10:42:27.044Z,93.80
2023-01-07T10:45:25.062Z,91.54
2023-01-07T10:48:19.433Z,93.55
2023-01-07T10:51:27.435Z,93.09
2023-01-07T10:53:59.930Z,93.06
2023-01-07T10:56:52.310Z,92.64
2023-01-07T10:59:21.673Z,91.89
2023-01-07T11:01:53.024Z,92.20
2023-01-07T11:04:19.637Z,92.38
2023-01-07T11:07:07.323Z,91.13
2023-01-07T11:09:39.792Z,91.30
2023-01-07T11:12:27.311Z,91.37
2023-01-07T11:14:56.940Z,90.01
2023-01-07T11:17:46.022Z,90.83
2023-01-07T11:20:12.567Z,90.53
2023-01-07T11:22:47.217Z,91.37
2023-01-07T11:25:28.922Z,90.32
2023-01-07T11:28:00.315Z,90.12
2023-01-07T11:30:29.301Z,90.63
2023-01-07T11:33:03.229Z,90.47
2023-01-07T11:35:32.260Z,90.25
2023-01-07T11:38:00.095Z,91.89
2023-01-07T11:40:33.109Z,91.85
2023-01-07T11:43:17.756Z,93.31
2023-01-07T11:46:19.538Z,90.37
2023-01-07T11:49:02.683Z,89.75
2023-01-07T11:51:40.018Z,89.47
2023-01-07T11:54:21.728Z,89.17
2023-01-07T11:56:48.213Z,89.47
2023-01-07T11:59:26.083Z,88.65
2023-01-07T12:01:55.370Z,88.10
2023-01-07T12:04:36.248Z,88.74
2023-01-07T12:07:06.813Z,88.50
2023-01-07T12:09:39.801Z,86.75
2023-01-07T12:12:37.004Z,83.49
2023-01-07T12:15:24.464Z,85.75
2023-01-07T12:18:16.535Z,86.15
2023-01-07T12:21:05.274Z,84.63
2023-01-07T12:24:16.487Z,83.23
2023-01-07T12:26:58.466Z,84.37
2023-01-07T12:29:44.693Z,85.16
2023-01-07T12:32:20.359Z,84.60
2023-01-07T12:35:14.208Z,84.18
2023-01-07T12:38:01.614Z,84.07
2023-01-07T12:41:10.750Z,82.77
2023-01-07T12:43:57.720Z,82.50
2023-01-07T12:46:31.660Z,83.88
2023-01-07T12:49:12.002Z,81.67
2023-01-07T12:52:00.100Z,81.75
2023-01-07T12:55:07.133Z,81.63
2023-01-07T12:57:48.577Z,80.76
2023-01-07T13:00:26.554Z,80.93
2023-01-07T13:03:46.359Z,81.96
2023-01-07T13:06:33.065Z,82.90
2023-01-07T13:09:12.199Z,83.81
2023-01-07T13:12:02.097Z,85.55
2023-01-07T13:14:44.352Z,84.25
2023-01-07T13:17:48.998Z,84.27
2023-01-07T13:20:21.765Z,83.87
2023-01-07T13:22:54.636Z,83.37
2023-01-07T13:25:53.180Z,83.52
2023-01-07T13:28:27.808Z,83.37
2023-01-07T13:31:29.772Z,83.56
2023-01-07T13:34:23.347Z,85.66
2023-01-07T13:36:53.009Z,84.83
2023-01-07T13:39:39.978Z,84.32
2023-01-07T13:42:14.449Z,83.72
2023-01-07T13:45:25.966Z,84.79
2023-01-07T13:47:55.991Z,85.86
2023-01-07T13:50:24.919Z,87.00
2023-01-07T13:52:59.562Z,87.38
2023-01-07T13:55:38.483Z,87.65
2023-01-07T13:58:46.759Z,87.14
2023-01-07T14:01:17.675Z,87.92
2023-01-07T14:03:49.844Z,88.56
2023-01-07T14:06:22.299Z,88.54
2023-01-07T14:08:56.202Z,88.42
2023-01-07T14:11:42.100Z,87.21
2023-01-07T14:14:17.566Z,87.75
2023-01-07T14:16:52.525Z,87.52
2023-01-07T14:20:16.401Z,87.89
2023-01-07T14:23:20.446Z,87.78
2023-01-07T14:25:53.754Z,86.81
2023-01-07T14:28:54.157Z,87.57
2023-01-07T14:31:26.496Z,86.91
2023-01-07T14:34:18.241Z,86.92
2023-01-07T14:37:11.586Z,86.35
2023-01-07T14:39:46.422Z,86.41
2023-01-07T14:42:18.987Z,86.70
2023-01-07T14:44:50.376Z,87.77
2023-01-07T14:48:00.775Z,87.71
2023-01-07T14:50:51.349Z,87.47
2023-01-07T14:53:27.511Z,87.58
2023-01-07T14:56:09.374Z,87.80
2023-01-07T14:58:44.051Z,87.62
2023-01-07T15:01:43.770Z,87.94
2023-01-07T15:04:41.935Z,89.14
2023-01-07T15:07:18.131Z,89.02
2023-01-07T15:10:09.454Z,86.91
2023-01-07T15:12:56.335Z,86.62
2023-01-07T15:15:46.573Z,89.29
2023-01-07T15:18:13.581Z,90.11
2023-01-07T15:20:43.094Z,89.87
2023-01-07T15:23:27.553Z,90.32
2023-01-07T15:26:14.773Z,90.69
2023-01-07T15:29:08.972Z,90.25
2023-01-07T15:31:58.453Z,90.67
2023-01-07T15:34:30.885Z,90.75
2023-01-07T15:36:58.849Z,91.58
2023-01-07T15:39:30.669Z,92.51
2023-01-07T15:41:57.798Z,93.04
2023-01-07T15:44:29.182Z,93.50
2023-01-07T15:47:33.663Z,93.93
2023-01-07T15:50:24.545Z,95.11
2023-01-07T15:53:23.402Z,95.70
2023-01-07T15:55:58.038Z,95.75
2023-01-07T15:58:35.039Z,95.50
2023-01-07T16:01:17.136Z,95.88
2023-01-07T16:03:47.023Z,96.62
2023-01-07T16:06:34.640Z,96.69
2023-01-07T16:09:19.890Z,96.18
2023-01-07T16:11:46.602Z,97.26
2023-01-07T16:14:19.282Z,97.33
2023-01-07T16:16:46.880Z,97.38
2023-01-07T16:19:19.373Z,96.88
2023-01-07T16:21:57.963Z,96.03
2023-01-07T16:24:25.819Z,95.76
2023-01-07T16:27:05.153Z,96.06
2023-01-07T16:29:37.911Z,95.99
2023-01-07T16:32:12.079Z,95.91
2023-01-07T16:35:10.950Z,95.90
2023-01-07T16:37:40.250Z,95.80
2023-01-07T16:40:19.716Z,95.72
2023-01-07T16:42:49.950Z,96.07
2023-01-07T16:45:38.462Z,96.52
2023-01-07T16:48:19.559Z,96.81
2023-01-07T16:50:55.506Z,97.41
2023-01-07T16:53:30.104Z,97.64
2023-01-07T16:56:09.003Z,97.32
2023-01-07T16:58:53.027Z,97.77
2023-01-07T17:01:32.257Z,98.36
2023-01-07T17:04:08.622Z,98.50
2023-01-07T17:06:39.568Z,99.16
2023-01-07T17:09:28.023Z,99.73
2023-01-07T17:12:34.463Z,99.58
2023-01-07T17:15:00.905Z,100.00
2023-01-07T17:17:37.460Z,100.00
2023-01-07T17:20:22.517Z,99.08
2023-01-07T17:22:50.034Z,99.19
2023-01-07T17:25:30.591Z,98.64
2023-01-07T17:28:06.482Z,99.37
2023-01-07T17:30:36.482Z,99.60
2023-01-07T17:33:03.540Z,100.00
2023-01-07T17:35:32.091Z,99.92
2023-01-07T17:38:01.657Z,100.00
2023-01-07T17:40:48.041Z,99.43
2023-01-07T17:43:37.521Z,100.00
2023-01-07T17:46:07.636Z,100.00
2023-01-07T17:48:35.386Z,100.00
2023-01-07T17:51:04.529Z,100.00
2023-01-07T17:53:52.947Z,100.00
2023-01-07T17:56:19.686Z,100.00
2023-01-07T17:58:46.338Z,100.00
2023-01-07T18:01:17.316Z,100.00
2023-01-07T18:03:48.465Z,99.34
2023-01-07T18:06:24.512Z,100.00
2023-01-07T18:08:52.358Z,100.00
2023-01-07T18:11:44.964Z,100.00
2023-01-07T18:14:18.351Z,100.00
2023-01-07T18:16:50.386Z,100.00
2023-01-07T18:19:39.813Z,100.00
2023-01-07T18:22:12.344Z,100.00
2023-01-07T18:24:44.829Z,100.00
2023-01-07T18:27:17.720Z,100.00
2023-01-07T18:29:45.495Z,100.00
2023-01-07T18:32:23.218Z,100.00
2023-01-07T18:34:49.748Z,100.00
2023-01-07T18:37:17.743Z,100.00
2023-01-07T18:39:49.352Z,100.00
2023-01-07T18:42:16.151Z,100.00
2023-01-07T18:44:42.931Z,100.00
2023-01-07T18:47:10.968Z,100.00
2023-01-07T18:49:39.435Z,100.00
2023-01-07T18:52:09.388Z,100.00
2023-01-07T18:54:37.934Z,100.00
2023-01-07T18:57:05.771Z,100.00
2023-01-07T18:59:34.487Z,100.00
2023-01-07T19:02:01.191Z,100.00
2023-01-07T19:04:29.992Z,100.00
2023-01-07T19:07:02.113Z,100.00
2023-01-07T19:09:31.828Z,100.00
2023-01-07T19:12:08.404Z,100.00
2023-01-07T19:14:35.023Z,100.00
2023-01-07T19:17:02.096Z,100.00
2023-01-07T19:19:34.267Z,100.00
2023-01-07T19:22:10.519Z,100.00
2023-01-07T19:24:36.975Z,100.00
2023-01-07T19:27:03.424Z,100.00
2023-01-07T19:29:29.857Z,100.00
2023-01-07T19:31:56.300Z,100.00
2023-01-07T19:34:22.760Z,100.00
2023-01-07T19:36:49.210Z,100.00
2023-01-07T19:39:17.805Z,100.00
2023-01-07T19:41:57.513Z,100.00
2023-01-07T19:44:25.245Z,100.00
2023-01-07T19:46:54.809Z,100.00
2023-01-07T19:49:29.253Z,100.00
2023-01-07T19:51:58.819Z,100.00
2023-01-07T19:54:37.831Z,100.00
2023-01-07T19:57:05.622Z,100.00
2023-01-07T19:59:35.564Z,100.00
2023-01-07T20:02:05.317Z,100.00
2023-01-07T20:04:34.987Z,100.00
2023-01-07T20:07:36.502Z,100.00
2023-01-07T20:10:08.431Z,100.00
2023-01-07T20:12:39.311Z,100.00
2023-01-07T20:15:10.450Z,100.00
2023-01-07T20:17:39.967Z,100.00
2023-01-07T20:20:08.326Z,100.00
2023-01-07T20:22:34.896Z,100.00
2023-01-07T20:25:10.138Z,100.00
2023-01-07T20:27:38.158Z,100.00
2023-01-07T20:30:11.211Z,100.00
2023-01-07T20:32:38.958Z,100.00
2023-01-07T20:35:06.019Z,100.00
2023-01-07T20:37:37.752Z,100.00
2023-01-07T20:40:10.079Z,100.00
2023-01-07T20:42:36.751Z,100.00
2023-01-07T20:45:04.805Z,100.00
2023-01-07T20:47:32.276Z,100.00
2023-01-07T20:49:59.791Z,100.00
2023-01-07T20:52:26.353Z,100.00
2023-01-07T20:55:14.670Z,100.00
2023-01-07T20:57:41.112Z,100.00
2023-01-07T21:00:08.452Z,100.00
2023-01-07T21:02:35.371Z,100.00
2023-01-07T21:05:08.400Z,100.00
2023-01-07T21:07:35.880Z,100.00
2023-01-07T21:10:04.897Z,100.00
2023-01-07T21:12:31.465Z,100.00
2023-01-07T21:14:57.957Z,100.00
2023-01-07T21:17:28.621Z,100.00
2023-01-07T21:19:55.287Z,100.00
2023-01-07T21:22:21.860Z,100.00
2023-01-07T21:24:53.869Z,100.00
2023-01-07T21:27:22.512Z,100.00
2023-01-07T21:29:51.006Z,100.00
2023-01-07T21:32:17.682Z,100.00
2023-01-07T21:34:44.178Z,100.00
2023-01-07T21:37:10.765Z,100.00
2023-01-07T21:39:40.013Z,100.00
2023-01-07T21:42:06.842Z,100.00
2023-01-07T21:44:37.255Z,100.00
2023-01-07T21:47:03.889Z,100.00
2023-01-07T21:49:32.017Z,100.00
2023-01-07T21:52:01.532Z,100.00
2023-01-07T21:54:28.314Z,100.00
2023-01-07T21:56:55.146Z,100.00
2023-01-07T21:59:21.886Z,100.00
2023-01-07T22:01:49.071Z,100.00
2023-01-07T22:04:15.934Z,100.00
2023-01-07T22:06:42.804Z,100.00
2023-01-07T22:09:16.070Z,100.00
2023-01-07T22:11:44.091Z,100.00
2023-01-07T22:14:16.539Z,100.00
2023-01-07T22:16:49.217Z,100.00
2023-01-07T22:19:21.021Z,100.00
2023-01-07T22:21:47.501Z,100.00
2023-01-07T22:24:14.360Z,100.00
2023-01-07T22:26:45.019Z,100.00
2023-01-07T22:29:11.840Z,100.00
2023-01-07T22:31:41.605Z,100.00
2023-01-07T22:34:14.099Z,100.00
2023-01-07T22:37:18.000Z,100.00
2023-01-07T22:39:57.526Z,100.00
2023-01-07T22:42:53.334Z,100.00
2023-01-07T22:45:29.593Z,100.00
2023-01-07T22:47:58.264Z,100.00
2023-01-07T22:50:24.717Z,100.00
2023-01-07T22:52:52.139Z,100.00
2023-01-07T22:55:24.733Z,100.00
2023-01-07T22:57:53.515Z,100.00
2023-01-07T23:00:47.588Z,100.00
2023-01-07T23:03:14.080Z,100.00
2023-01-07T23:05:40.581Z,100.00
2023-01-07T23:08:07.646Z,100.00
2023-01-07T23:10:36.426Z,100.00
2023-01-07T23:13:12.723Z,100.00
2023-01-07T23:15:39.855Z,100.00
2023-01-07T23:18:08.145Z,100.00
2023-01-07T23:20:38.065Z,100.00
2023-01-07T23:23:05.136Z,100.00
2023-01-07T23:25:31.572Z,100.00
2023-01-07T23:27:58.065Z,100.00
2023-01-07T23:30:24.529Z,100.00
2023-01-07T23:33:09.545Z,100.00
2023-01-07T23:35:36.008Z,100.00
2023-01-07T23:38:03.787Z,100.00
2023-01-07T23:40:30.751Z,100.00
2023-01-07T23:42:57.805Z,100.00
2023-01-07T23:45:24.386Z,100.00
2023-01-07T23:47:50.798Z,100.00
2023-01-07T23:50:17.348Z,100.00
2023-01-07T23:52:43.728Z,100.00
2023-01-07T23:55:10.511Z,100.00
2023-01-07T23:57:36.978Z,100.00
